Terminal Aerodrome Forecast
Issued by NWS Grand Forks, ND

Home | Current Version | Previous Version | Graphics & Text | Print | Product List | Glossary On
Versions: 1 2 3 4 5 6 7 8 9 10 11 12 13 14 15 16 17 18 19 20 21
000
FTUS43 KFGF 171900 AAA
TAFGFK
TAF AMD
KGFK 171901Z 1719/1818 34017G24KT P6SM OVC013
      TEMPO 1719/1722 OVC009
     FM180000 36011KT P6SM OVC025=

USA.gov is the U.S. government's official web portal to all federal, state and local government web resources and services.